sensor_id;sensor_type;location;lat;lon;timestamp;P1;durP1;ratioP1;P2;durP2;ratioP2
11548;SDS011;61444;59.472;18.306;2023-05-21T00:00:32;2.53;;;1.90;;
11548;SDS011;61444;59.472;18.306;2023-05-21T00:02:41;2.53;;;1.83;;
11548;SDS011;61444;59.472;18.306;2023-05-21T00:04:50;2.73;;;1.80;;
11548;SDS011;61444;59.472;18.306;2023-05-21T00:06:59;3.00;;;2.00;;
11548;SDS011;61444;59.472;18.306;2023-05-21T00:09:09;4.03;;;2.33;;
11548;SDS011;61444;59.472;18.306;2023-05-21T00:11:20;3.83;;;2.10;;
11548;SDS011;61444;59.472;18.306;2023-05-21T00:13:29;4.73;;;2.27;;
11548;SDS011;61444;59.472;18.306;2023-05-21T00:15:38;4.27;;;1.90;;
11548;SDS011;61444;59.472;18.306;2023-05-21T00:17:47;3.17;;;2.37;;
11548;SDS011;61444;59.472;18.306;2023-05-21T00:19:56;5.13;;;2.00;;
11548;SDS011;61444;59.472;18.306;2023-05-21T00:22:07;2.20;;;2.00;;
11548;SDS011;61444;59.472;18.306;2023-05-21T00:24:16;3.00;;;1.90;;
11548;SDS011;61444;59.472;18.306;2023-05-21T00:26:27;3.30;;;2.70;;
11548;SDS011;61444;59.472;18.306;2023-05-21T00:28:38;4.70;;;2.10;;
11548;SDS011;61444;59.472;18.306;2023-05-21T00:30:47;3.93;;;2.27;;
11548;SDS011;61444;59.472;18.306;2023-05-21T00:32:56;7.40;;;2.57;;
11548;SDS011;61444;59.472;18.306;2023-05-21T00:35:08;4.93;;;2.30;;
11548;SDS011;61444;59.472;18.306;2023-05-21T00:37:17;3.70;;;2.20;;
11548;SDS011;61444;59.472;18.306;2023-05-21T00:39:26;2.33;;;1.90;;
11548;SDS011;61444;59.472;18.306;2023-05-21T00:41:36;3.33;;;2.40;;
11548;SDS011;61444;59.472;18.306;2023-05-21T00:43:48;4.97;;;2.30;;
11548;SDS011;61444;59.472;18.306;2023-05-21T00:45:58;2.57;;;2.37;;
11548;SDS011;61444;59.472;18.306;2023-05-21T00:48:07;3.80;;;2.30;;
11548;SDS011;61444;59.472;18.306;2023-05-21T00:50:16;4.30;;;2.93;;
11548;SDS011;61444;59.472;18.306;2023-05-21T00:52:24;4.13;;;2.27;;
11548;SDS011;61444;59.472;18.306;2023-05-21T00:54:34;4.10;;;2.73;;
11548;SDS011;61444;59.472;18.306;2023-05-21T00:56:44;3.30;;;2.43;;
11548;SDS011;61444;59.472;18.306;2023-05-21T00:58:54;4.97;;;2.40;;
11548;SDS011;61444;59.472;18.306;2023-05-21T01:01:04;3.30;;;2.00;;
11548;SDS011;61444;59.472;18.306;2023-05-21T01:03:19;4.37;;;2.40;;
11548;SDS011;61444;59.472;18.306;2023-05-21T01:05:29;4.17;;;2.50;;
11548;SDS011;61444;59.472;18.306;2023-05-21T01:07:39;7.20;;;2.53;;
11548;SDS011;61444;59.472;18.306;2023-05-21T01:09:48;2.73;;;2.33;;
11548;SDS011;61444;59.472;18.306;2023-05-21T01:11:59;4.30;;;2.53;;
11548;SDS011;61444;59.472;18.306;2023-05-21T01:14:08;4.17;;;2.30;;
11548;SDS011;61444;59.472;18.306;2023-05-21T01:16:18;5.93;;;2.23;;
11548;SDS011;61444;59.472;18.306;2023-05-21T01:18:27;4.00;;;2.30;;
11548;SDS011;61444;59.472;18.306;2023-05-21T01:20:41;3.63;;;2.40;;
11548;SDS011;61444;59.472;18.306;2023-05-21T01:22:55;4.40;;;2.70;;
11548;SDS011;61444;59.472;18.306;2023-05-21T01:25:05;2.60;;;2.40;;
11548;SDS011;61444;59.472;18.306;2023-05-21T01:27:14;2.97;;;2.50;;
11548;SDS011;61444;59.472;18.306;2023-05-21T01:29:23;6.97;;;2.37;;
11548;SDS011;61444;59.472;18.306;2023-05-21T01:31:33;5.33;;;2.23;;
11548;SDS011;61444;59.472;18.306;2023-05-21T01:33:46;4.13;;;2.50;;
11548;SDS011;61444;59.472;18.306;2023-05-21T01:35:56;2.90;;;2.20;;
11548;SDS011;61444;59.472;18.306;2023-05-21T01:38:11;2.93;;;2.43;;
11548;SDS011;61444;59.472;18.306;2023-05-21T01:40:22;3.93;;;2.30;;
11548;SDS011;61444;59.472;18.306;2023-05-21T01:42:34;3.63;;;2.53;;
11548;SDS011;61444;59.472;18.306;2023-05-21T01:44:43;3.77;;;2.80;;
11548;SDS011;61444;59.472;18.306;2023-05-21T01:46:54;2.73;;;2.53;;
11548;SDS011;61444;59.472;18.306;2023-05-21T01:49:04;3.30;;;2.60;;
11548;SDS011;61444;59.472;18.306;2023-05-21T01:51:14;4.40;;;2.73;;
11548;SDS011;61444;59.472;18.306;2023-05-21T01:53:25;3.63;;;2.40;;
11548;SDS011;61444;59.472;18.306;2023-05-21T01:55:34;6.03;;;2.77;;
11548;SDS011;61444;59.472;18.306;2023-05-21T01:57:47;3.57;;;2.30;;
11548;SDS011;61444;59.472;18.306;2023-05-21T01:59:56;3.53;;;2.47;;
11548;SDS011;61444;59.472;18.306;2023-05-21T02:02:06;4.77;;;2.63;;
11548;SDS011;61444;59.472;18.306;2023-05-21T02:04:15;3.60;;;2.43;;
11548;SDS011;61444;59.472;18.306;2023-05-21T02:06:24;3.47;;;2.63;;
11548;SDS011;61444;59.472;18.306;2023-05-21T02:08:35;4.30;;;2.50;;
11548;SDS011;61444;59.472;18.306;2023-05-21T02:10:44;3.83;;;2.70;;
11548;SDS011;61444;59.472;18.306;2023-05-21T02:12:54;3.50;;;2.50;;
11548;SDS011;61444;59.472;18.306;2023-05-21T02:15:03;2.93;;;2.60;;
11548;SDS011;61444;59.472;18.306;2023-05-21T02:17:12;3.13;;;2.50;;
11548;SDS011;61444;59.472;18.306;2023-05-21T02:19:23;3.40;;;2.67;;
11548;SDS011;61444;59.472;18.306;2023-05-21T02:21:32;3.90;;;2.73;;
11548;SDS011;61444;59.472;18.306;2023-05-21T02:23:43;3.13;;;2.83;;
11548;SDS011;61444;59.472;18.306;2023-05-21T02:25:52;3.93;;;2.40;;
11548;SDS011;61444;59.472;18.306;2023-05-21T02:28:01;4.00;;;2.80;;
11548;SDS011;61444;59.472;18.306;2023-05-21T02:30:10;4.13;;;2.33;;
11548;SDS011;61444;59.472;18.306;2023-05-21T02:32:20;2.60;;;2.20;;
11548;SDS011;61444;59.472;18.306;2023-05-21T02:34:29;3.30;;;2.60;;
11548;SDS011;61444;59.472;18.306;2023-05-21T02:36:38;2.90;;;2.50;;
11548;SDS011;61444;59.472;18.306;2023-05-21T02:38:50;3.00;;;2.63;;
11548;SDS011;61444;59.472;18.306;2023-05-21T02:40:59;3.93;;;2.50;;
11548;SDS011;61444;59.472;18.306;2023-05-21T02:43:08;5.10;;;2.60;;
11548;SDS011;61444;59.472;18.306;2023-05-21T02:45:20;4.90;;;2.67;;
11548;SDS011;61444;59.472;18.306;2023-05-21T02:47:28;3.90;;;2.20;;
11548;SDS011;61444;59.472;18.306;2023-05-21T02:49:37;2.73;;;2.30;;
11548;SDS011;61444;59.472;18.306;2023-05-21T02:51:46;2.20;;;2.00;;
11548;SDS011;61444;59.472;18.306;2023-05-21T02:53:57;4.93;;;2.80;;
11548;SDS011;61444;59.472;18.306;2023-05-21T02:56:06;5.70;;;2.40;;
11548;SDS011;61444;59.472;18.306;2023-05-21T02:58:15;4.47;;;2.43;;
11548;SDS011;61444;59.472;18.306;2023-05-21T03:00:25;3.63;;;2.40;;
11548;SDS011;61444;59.472;18.306;2023-05-21T03:02:33;4.23;;;2.43;;
11548;SDS011;61444;59.472;18.306;2023-05-21T03:04:43;2.97;;;2.30;;
11548;SDS011;61444;59.472;18.306;2023-05-21T03:06:53;4.33;;;2.33;;
11548;SDS011;61444;59.472;18.306;2023-05-21T03:09:03;5.93;;;2.40;;
11548;SDS011;61444;59.472;18.306;2023-05-21T03:11:13;4.00;;;2.23;;
11548;SDS011;61444;59.472;18.306;2023-05-21T03:13:22;5.43;;;2.47;;
11548;SDS011;61444;59.472;18.306;2023-05-21T03:15:31;6.50;;;2.60;;
11548;SDS011;61444;59.472;18.306;2023-05-21T03:17:40;4.47;;;2.47;;
11548;SDS011;61444;59.472;18.306;2023-05-21T03:19:50;8.47;;;2.53;;
11548;SDS011;61444;59.472;18.306;2023-05-21T03:22:00;4.67;;;2.40;;
11548;SDS011;61444;59.472;18.306;2023-05-21T03:24:10;2.63;;;2.43;;
11548;SDS011;61444;59.472;18.306;2023-05-21T03:26:20;4.67;;;2.50;;
11548;SDS011;61444;59.472;18.306;2023-05-21T03:28:29;4.57;;;2.20;;
11548;SDS011;61444;59.472;18.306;2023-05-21T03:30:39;3.43;;;2.40;;
11548;SDS011;61444;59.472;18.306;2023-05-21T03:32:51;3.60;;;2.53;;
11548;SDS011;61444;59.472;18.306;2023-05-21T03:35:02;4.00;;;2.70;;
11548;SDS011;61444;59.472;18.306;2023-05-21T03:37:11;2.83;;;2.47;;
11548;SDS011;61444;59.472;18.306;2023-05-21T03:39:22;3.20;;;2.53;;
11548;SDS011;61444;59.472;18.306;2023-05-21T03:41:31;3.13;;;2.20;;
11548;SDS011;61444;59.472;18.306;2023-05-21T03:43:40;4.50;;;2.27;;
11548;SDS011;61444;59.472;18.306;2023-05-21T03:45:49;4.53;;;2.10;;
11548;SDS011;61444;59.472;18.306;2023-05-21T03:47:58;4.73;;;2.40;;
11548;SDS011;61444;59.472;18.306;2023-05-21T03:50:08;3.00;;;2.20;;
11548;SDS011;61444;59.472;18.306;2023-05-21T03:52:17;6.03;;;2.73;;
11548;SDS011;61444;59.472;18.306;2023-05-21T03:54:28;3.30;;;2.70;;
11548;SDS011;61444;59.472;18.306;2023-05-21T03:56:37;2.77;;;2.40;;
11548;SDS011;61444;59.472;18.306;2023-05-21T03:58:46;7.03;;;2.60;;
11548;SDS011;61444;59.472;18.306;2023-05-21T04:00:55;3.90;;;2.30;;
11548;SDS011;61444;59.472;18.306;2023-05-21T04:03:04;6.87;;;2.20;;
11548;SDS011;61444;59.472;18.306;2023-05-21T04:05:14;5.17;;;2.40;;
11548;SDS011;61444;59.472;18.306;2023-05-21T04:07:23;3.03;;;2.40;;
11548;SDS011;61444;59.472;18.306;2023-05-21T04:09:34;3.70;;;2.70;;
11548;SDS011;61444;59.472;18.306;2023-05-21T04:11:43;3.43;;;2.33;;
11548;SDS011;61444;59.472;18.306;2023-05-21T04:13:52;2.87;;;2.40;;
11548;SDS011;61444;59.472;18.306;2023-05-21T04:16:01;2.43;;;2.20;;
11548;SDS011;61444;59.472;18.306;2023-05-21T04:18:09;2.40;;;2.20;;
11548;SDS011;61444;59.472;18.306;2023-05-21T04:20:19;2.60;;;2.40;;
11548;SDS011;61444;59.472;18.306;2023-05-21T04:22:28;3.30;;;2.17;;
11548;SDS011;61444;59.472;18.306;2023-05-21T04:24:38;4.47;;;2.33;;
11548;SDS011;61444;59.472;18.306;2023-05-21T04:26:48;5.23;;;2.40;;
11548;SDS011;61444;59.472;18.306;2023-05-21T04:28:57;2.53;;;2.33;;
11548;SDS011;61444;59.472;18.306;2023-05-21T04:31:08;4.33;;;2.40;;
11548;SDS011;61444;59.472;18.306;2023-05-21T04:33:19;2.30;;;2.10;;
11548;SDS011;61444;59.472;18.306;2023-05-21T04:35:28;2.77;;;2.20;;
11548;SDS011;61444;59.472;18.306;2023-05-21T04:37:37;6.10;;;2.27;;
11548;SDS011;61444;59.472;18.306;2023-05-21T04:39:49;4.27;;;2.27;;
11548;SDS011;61444;59.472;18.306;2023-05-21T04:41:59;3.60;;;2.80;;
11548;SDS011;61444;59.472;18.306;2023-05-21T04:44:09;5.03;;;2.20;;
11548;SDS011;61444;59.472;18.306;2023-05-21T04:46:20;4.33;;;2.30;;
11548;SDS011;61444;59.472;18.306;2023-05-21T04:48:32;3.03;;;2.33;;
11548;SDS011;61444;59.472;18.306;2023-05-21T04:50:41;2.83;;;2.33;;
11548;SDS011;61444;59.472;18.306;2023-05-21T04:52:50;5.47;;;2.10;;
11548;SDS011;61444;59.472;18.306;2023-05-21T04:55:02;3.60;;;2.10;;
11548;SDS011;61444;59.472;18.306;2023-05-21T04:57:10;3.80;;;2.30;;
11548;SDS011;61444;59.472;18.306;2023-05-21T04:59:19;6.93;;;2.30;;
11548;SDS011;61444;59.472;18.306;2023-05-21T05:01:28;4.30;;;1.80;;
11548;SDS011;61444;59.472;18.306;2023-05-21T05:03:37;1.87;;;1.70;;
11548;SDS011;61444;59.472;18.306;2023-05-21T05:05:46;4.40;;;2.13;;
11548;SDS011;61444;59.472;18.306;2023-05-21T05:07:55;2.07;;;1.70;;
11548;SDS011;61444;59.472;18.306;2023-05-21T05:10:07;3.07;;;1.73;;
11548;SDS011;61444;59.472;18.306;2023-05-21T05:12:16;2.07;;;1.70;;
11548;SDS011;61444;59.472;18.306;2023-05-21T05:14:25;4.83;;;1.70;;
11548;SDS011;61444;59.472;18.306;2023-05-21T05:16:34;2.10;;;1.90;;
11548;SDS011;61444;59.472;18.306;2023-05-21T05:18:43;4.07;;;1.87;;
11548;SDS011;61444;59.472;18.306;2023-05-21T05:20:52;3.00;;;1.50;;
11548;SDS011;61444;59.472;18.306;2023-05-21T05:23:01;2.30;;;1.77;;
11548;SDS011;61444;59.472;18.306;2023-05-21T05:25:12;3.37;;;1.60;;
11548;SDS011;61444;59.472;18.306;2023-05-21T05:27:21;3.60;;;1.50;;
11548;SDS011;61444;59.472;18.306;2023-05-21T05:29:29;2.17;;;1.37;;
11548;SDS011;61444;59.472;18.306;2023-05-21T05:31:39;7.17;;;1.60;;
11548;SDS011;61444;59.472;18.306;2023-05-21T05:33:47;1.73;;;1.30;;
11548;SDS011;61444;59.472;18.306;2023-05-21T05:35:56;1.40;;;1.30;;
11548;SDS011;61444;59.472;18.306;2023-05-21T05:38:05;3.00;;;1.40;;
11548;SDS011;61444;59.472;18.306;2023-05-21T05:40:16;1.60;;;1.50;;
11548;SDS011;61444;59.472;18.306;2023-05-21T05:42:25;2.70;;;1.37;;
11548;SDS011;61444;59.472;18.306;2023-05-21T05:44:34;6.17;;;1.50;;
11548;SDS011;61444;59.472;18.306;2023-05-21T05:46:43;4.90;;;1.50;;
11548;SDS011;61444;59.472;18.306;2023-05-21T05:48:53;3.00;;;1.40;;
11548;SDS011;61444;59.472;18.306;2023-05-21T05:51:01;2.07;;;1.70;;
11548;SDS011;61444;59.472;18.306;2023-05-21T05:53:10;1.60;;;1.33;;
11548;SDS011;61444;59.472;18.306;2023-05-21T05:55:21;1.77;;;1.40;;
11548;SDS011;61444;59.472;18.306;2023-05-21T05:57:32;3.53;;;1.50;;
11548;SDS011;61444;59.472;18.306;2023-05-21T05:59:41;3.20;;;1.40;;
11548;SDS011;61444;59.472;18.306;2023-05-21T06:01:50;1.90;;;1.33;;
11548;SDS011;61444;59.472;18.306;2023-05-21T06:03:59;5.70;;;1.63;;
11548;SDS011;61444;59.472;18.306;2023-05-21T06:06:07;1.90;;;1.60;;
11548;SDS011;61444;59.472;18.306;2023-05-21T06:08:17;3.03;;;1.53;;
11548;SDS011;61444;59.472;18.306;2023-05-21T06:10:28;3.40;;;1.70;;
11548;SDS011;61444;59.472;18.306;2023-05-21T06:12:36;1.67;;;1.47;;
11548;SDS011;61444;59.472;18.306;2023-05-21T06:14:45;2.50;;;1.67;;
11548;SDS011;61444;59.472;18.306;2023-05-21T06:16:54;2.60;;;1.70;;
11548;SDS011;61444;59.472;18.306;2023-05-21T06:19:03;1.43;;;1.33;;
11548;SDS011;61444;59.472;18.306;2023-05-21T06:21:12;4.33;;;1.50;;
11548;SDS011;61444;59.472;18.306;2023-05-21T06:23:21;2.07;;;1.57;;
11548;SDS011;61444;59.472;18.306;2023-05-21T06:25:32;1.83;;;1.60;;
11548;SDS011;61444;59.472;18.306;2023-05-21T06:27:41;1.47;;;1.37;;
11548;SDS011;61444;59.472;18.306;2023-05-21T06:29:50;2.93;;;1.57;;
11548;SDS011;61444;59.472;18.306;2023-05-21T06:31:59;3.87;;;1.70;;
11548;SDS011;61444;59.472;18.306;2023-05-21T06:34:08;2.00;;;1.80;;
11548;SDS011;61444;59.472;18.306;2023-05-21T06:36:17;1.83;;;1.70;;
11548;SDS011;61444;59.472;18.306;2023-05-21T06:38:26;1.80;;;1.60;;
11548;SDS011;61444;59.472;18.306;2023-05-21T06:40:37;2.23;;;1.73;;
11548;SDS011;61444;59.472;18.306;2023-05-21T06:42:46;2.80;;;1.60;;
11548;SDS011;61444;59.472;18.306;2023-05-21T06:44:55;1.67;;;1.57;;
11548;SDS011;61444;59.472;18.306;2023-05-21T06:47:04;3.57;;;1.80;;
11548;SDS011;61444;59.472;18.306;2023-05-21T06:49:13;3.63;;;1.77;;
11548;SDS011;61444;59.472;18.306;2023-05-21T06:51:22;2.53;;;1.40;;
11548;SDS011;61444;59.472;18.306;2023-05-21T06:53:31;2.27;;;1.70;;
11548;SDS011;61444;59.472;18.306;2023-05-21T06:55:41;2.80;;;1.90;;
11548;SDS011;61444;59.472;18.306;2023-05-21T06:57:51;2.80;;;1.60;;
11548;SDS011;61444;59.472;18.306;2023-05-21T07:00:00;1.80;;;1.70;;
11548;SDS011;61444;59.472;18.306;2023-05-21T07:02:08;3.67;;;2.00;;
11548;SDS011;61444;59.472;18.306;2023-05-21T07:04:17;1.77;;;1.60;;
11548;SDS011;61444;59.472;18.306;2023-05-21T07:06:26;3.27;;;2.20;;
11548;SDS011;61444;59.472;18.306;2023-05-21T07:08:35;2.07;;;1.87;;
11548;SDS011;61444;59.472;18.306;2023-05-21T07:10:46;2.53;;;2.30;;
11548;SDS011;61444;59.472;18.306;2023-05-21T07:12:55;2.10;;;2.00;;
11548;SDS011;61444;59.472;18.306;2023-05-21T07:15:04;2.53;;;1.73;;
11548;SDS011;61444;59.472;18.306;2023-05-21T07:17:14;2.80;;;1.97;;
11548;SDS011;61444;59.472;18.306;2023-05-21T07:19:23;2.53;;;2.00;;
11548;SDS011;61444;59.472;18.306;2023-05-21T07:21:32;3.33;;;2.00;;
11548;SDS011;61444;59.472;18.306;2023-05-21T07:23:41;2.33;;;2.13;;
11548;SDS011;61444;59.472;18.306;2023-05-21T07:25:52;5.30;;;2.10;;
11548;SDS011;61444;59.472;18.306;2023-05-21T07:28:01;2.03;;;1.87;;
11548;SDS011;61444;59.472;18.306;2023-05-21T07:30:13;2.70;;;2.00;;
11548;SDS011;61444;59.472;18.306;2023-05-21T07:32:21;2.80;;;2.27;;
11548;SDS011;61444;59.472;18.306;2023-05-21T07:34:32;5.27;;;2.00;;
11548;SDS011;61444;59.472;18.306;2023-05-21T07:36:40;2.80;;;2.03;;
11548;SDS011;61444;59.472;18.306;2023-05-21T07:38:50;3.50;;;2.40;;
11548;SDS011;61444;59.472;18.306;2023-05-21T07:41:00;4.23;;;1.90;;
11548;SDS011;61444;59.472;18.306;2023-05-21T07:43:09;2.70;;;2.07;;
11548;SDS011;61444;59.472;18.306;2023-05-21T07:45:18;2.60;;;1.90;;
11548;SDS011;61444;59.472;18.306;2023-05-21T07:47:27;2.87;;;2.10;;
11548;SDS011;61444;59.472;18.306;2023-05-21T07:49:36;2.90;;;2.17;;
11548;SDS011;61444;59.472;18.306;2023-05-21T07:51:45;3.27;;;1.93;;
11548;SDS011;61444;59.472;18.306;2023-05-21T07:53:54;3.87;;;2.00;;
11548;SDS011;61444;59.472;18.306;2023-05-21T07:56:05;1.87;;;1.70;;
11548;SDS011;61444;59.472;18.306;2023-05-21T07:58:14;3.00;;;2.10;;
11548;SDS011;61444;59.472;18.306;2023-05-21T08:00:24;2.10;;;1.90;;
11548;SDS011;61444;59.472;18.306;2023-05-21T08:02:33;3.97;;;2.37;;
11548;SDS011;61444;59.472;18.306;2023-05-21T08:04:42;2.87;;;2.30;;
11548;SDS011;61444;59.472;18.306;2023-05-21T08:06:51;2.57;;;2.37;;
11548;SDS011;61444;59.472;18.306;2023-05-21T08:09:00;6.43;;;2.10;;
11548;SDS011;61444;59.472;18.306;2023-05-21T08:11:10;4.80;;;2.23;;
11548;SDS011;61444;59.472;18.306;2023-05-21T08:13:19;5.63;;;2.17;;
11548;SDS011;61444;59.472;18.306;2023-05-21T08:15:28;2.63;;;1.90;;
11548;SDS011;61444;59.472;18.306;2023-05-21T08:17:37;3.30;;;2.47;;
11548;SDS011;61444;59.472;18.306;2023-05-21T08:19:46;2.50;;;2.30;;
11548;SDS011;61444;59.472;18.306;2023-05-21T08:21:55;2.10;;;1.97;;
11548;SDS011;61444;59.472;18.306;2023-05-21T08:24:05;3.73;;;1.93;;
11548;SDS011;61444;59.472;18.306;2023-05-21T08:26:15;2.20;;;1.90;;
11548;SDS011;61444;59.472;18.306;2023-05-21T08:28:25;3.90;;;2.50;;
11548;SDS011;61444;59.472;18.306;2023-05-21T08:30:34;2.80;;;2.13;;
11548;SDS011;61444;59.472;18.306;2023-05-21T08:32:43;2.50;;;2.30;;
11548;SDS011;61444;59.472;18.306;2023-05-21T08:34:52;2.70;;;2.47;;
11548;SDS011;61444;59.472;18.306;2023-05-21T08:37:00;2.57;;;2.40;;
11548;SDS011;61444;59.472;18.306;2023-05-21T08:39:09;3.23;;;2.20;;
11548;SDS011;61444;59.472;18.306;2023-05-21T08:41:21;2.30;;;2.10;;
11548;SDS011;61444;59.472;18.306;2023-05-21T08:43:30;3.67;;;1.87;;
11548;SDS011;61444;59.472;18.306;2023-05-21T08:45:40;2.20;;;2.00;;
11548;SDS011;61444;59.472;18.306;2023-05-21T08:47:54;2.20;;;2.00;;
11548;SDS011;61444;59.472;18.306;2023-05-21T08:50:03;2.83;;;2.00;;
11548;SDS011;61444;59.472;18.306;2023-05-21T08:52:12;3.13;;;1.90;;
11548;SDS011;61444;59.472;18.306;2023-05-21T08:54:21;2.33;;;2.13;;
11548;SDS011;61444;59.472;18.306;2023-05-21T08:56:32;3.00;;;1.97;;
11548;SDS011;61444;59.472;18.306;2023-05-21T08:58:41;3.07;;;2.33;;
11548;SDS011;61444;59.472;18.306;2023-05-21T09:00:50;3.33;;;3.13;;
11548;SDS011;61444;59.472;18.306;2023-05-21T09:03:00;3.53;;;3.23;;
11548;SDS011;61444;59.472;18.306;2023-05-21T09:05:13;2.77;;;2.57;;
11548;SDS011;61444;59.472;18.306;2023-05-21T09:07:23;3.50;;;2.70;;
11548;SDS011;61444;59.472;18.306;2023-05-21T09:09:37;2.53;;;2.30;;
11548;SDS011;61444;59.472;18.306;2023-05-21T09:11:49;3.37;;;2.33;;
11548;SDS011;61444;59.472;18.306;2023-05-21T09:13:58;3.40;;;3.03;;
11548;SDS011;61444;59.472;18.306;2023-05-21T09:16:08;2.83;;;2.63;;
11548;SDS011;61444;59.472;18.306;2023-05-21T09:18:17;2.90;;;2.67;;
11548;SDS011;61444;59.472;18.306;2023-05-21T09:20:27;2.83;;;2.63;;
11548;SDS011;61444;59.472;18.306;2023-05-21T09:22:36;2.57;;;2.20;;
11548;SDS011;61444;59.472;18.306;2023-05-21T09:24:45;2.30;;;2.10;;
11548;SDS011;61444;59.472;18.306;2023-05-21T09:26:55;2.37;;;2.17;;
11548;SDS011;61444;59.472;18.306;2023-05-21T09:29:04;2.93;;;2.10;;
11548;SDS011;61444;59.472;18.306;2023-05-21T09:31:14;3.07;;;2.40;;
11548;SDS011;61444;59.472;18.306;2023-05-21T09:33:23;1.97;;;1.87;;
11548;SDS011;61444;59.472;18.306;2023-05-21T09:35:32;3.07;;;2.30;;
11548;SDS011;61444;59.472;18.306;2023-05-21T09:37:43;3.00;;;2.13;;
11548;SDS011;61444;59.472;18.306;2023-05-21T09:39:52;2.40;;;2.20;;
11548;SDS011;61444;59.472;18.306;2023-05-21T09:42:03;2.40;;;2.20;;
11548;SDS011;61444;59.472;18.306;2023-05-21T09:44:12;2.60;;;2.40;;
11548;SDS011;61444;59.472;18.306;2023-05-21T09:46:24;2.77;;;2.27;;
11548;SDS011;61444;59.472;18.306;2023-05-21T09:48:33;4.23;;;2.40;;
11548;SDS011;61444;59.472;18.306;2023-05-21T09:50:43;5.67;;;2.57;;
11548;SDS011;61444;59.472;18.306;2023-05-21T09:52:52;2.47;;;2.27;;
11548;SDS011;61444;59.472;18.306;2023-05-21T09:55:01;2.87;;;2.43;;
11548;SDS011;61444;59.472;18.306;2023-05-21T09:57:12;2.33;;;2.20;;
11548;SDS011;61444;59.472;18.306;2023-05-21T09:59:22;3.10;;;2.27;;
11548;SDS011;61444;59.472;18.306;2023-05-21T10:01:30;3.80;;;2.50;;
11548;SDS011;61444;59.472;18.306;2023-05-21T10:03:39;2.80;;;2.50;;
11548;SDS011;61444;59.472;18.306;2023-05-21T10:05:49;2.90;;;2.27;;
11548;SDS011;61444;59.472;18.306;2023-05-21T10:08:00;3.33;;;2.47;;
11548;SDS011;61444;59.472;18.306;2023-05-21T10:10:10;2.70;;;2.50;;
11548;SDS011;61444;59.472;18.306;2023-05-21T10:12:22;3.10;;;2.53;;
11548;SDS011;61444;59.472;18.306;2023-05-21T10:14:31;3.57;;;2.47;;
11548;SDS011;61444;59.472;18.306;2023-05-21T10:16:41;3.37;;;2.70;;
11548;SDS011;61444;59.472;18.306;2023-05-21T10:18:51;2.33;;;2.10;;
11548;SDS011;61444;59.472;18.306;2023-05-21T10:21:01;3.20;;;2.00;;
11548;SDS011;61444;59.472;18.306;2023-05-21T10:23:10;2.40;;;1.90;;
11548;SDS011;61444;59.472;18.306;2023-05-21T10:25:19;3.43;;;2.30;;
11548;SDS011;61444;59.472;18.306;2023-05-21T10:27:30;2.73;;;2.53;;
11548;SDS011;61444;59.472;18.306;2023-05-21T10:29:41;2.53;;;2.27;;
11548;SDS011;61444;59.472;18.306;2023-05-21T10:31:51;3.37;;;3.17;;
11548;SDS011;61444;59.472;18.306;2023-05-21T10:34:00;4.20;;;4.00;;
11548;SDS011;61444;59.472;18.306;2023-05-21T10:36:12;3.73;;;3.53;;
11548;SDS011;61444;59.472;18.306;2023-05-21T10:38:24;5.07;;;3.57;;
11548;SDS011;61444;59.472;18.306;2023-05-21T10:40:33;5.27;;;4.87;;
11548;SDS011;61444;59.472;18.306;2023-05-21T10:42:49;3.77;;;3.53;;
11548;SDS011;61444;59.472;18.306;2023-05-21T10:45:06;2.70;;;2.50;;
11548;SDS011;61444;59.472;18.306;2023-05-21T10:47:21;4.83;;;4.43;;
11548;SDS011;61444;59.472;18.306;2023-05-21T10:49:39;5.63;;;2.13;;
11548;SDS011;61444;59.472;18.306;2023-05-21T10:51:58;4.73;;;1.97;;
11548;SDS011;61444;59.472;18.306;2023-05-21T10:56:44;3.03;;;1.90;;
11548;SDS011;61444;59.472;18.306;2023-05-21T10:59:05;2.47;;;2.27;;
11548;SDS011;61444;59.472;18.306;2023-05-21T11:01:15;3.50;;;2.27;;
11548;SDS011;61444;59.472;18.306;2023-05-21T11:03:25;3.37;;;3.17;;
11548;SDS011;61444;59.472;18.306;2023-05-21T11:05:37;4.03;;;2.10;;
11548;SDS011;61444;59.472;18.306;2023-05-21T11:07:50;7.90;;;2.70;;
11548;SDS011;61444;59.472;18.306;2023-05-21T11:12:33;2.63;;;1.90;;
11548;SDS011;61444;59.472;18.306;2023-05-21T11:14:45;4.23;;;3.93;;
11548;SDS011;61444;59.472;18.306;2023-05-21T11:17:03;3.17;;;2.80;;
11548;SDS011;61444;59.472;18.306;2023-05-21T11:19:17;2.60;;;2.40;;
11548;SDS011;61444;59.472;18.306;2023-05-21T11:21:30;2.50;;;1.80;;
11548;SDS011;61444;59.472;18.306;2023-05-21T11:23:47;6.73;;;1.90;;
11548;SDS011;61444;59.472;18.306;2023-05-21T11:25:59;3.23;;;1.87;;
11548;SDS011;61444;59.472;18.306;2023-05-21T11:28:08;2.57;;;2.03;;
11548;SDS011;61444;59.472;18.306;2023-05-21T11:30:19;3.40;;;3.17;;
11548;SDS011;61444;59.472;18.306;2023-05-21T11:32:28;5.03;;;3.23;;
11548;SDS011;61444;59.472;18.306;2023-05-21T11:34:41;4.37;;;3.97;;
11548;SDS011;61444;59.472;18.306;2023-05-21T11:36:51;3.47;;;2.73;;
11548;SDS011;61444;59.472;18.306;2023-05-21T11:39:23;3.73;;;3.43;;
11548;SDS011;61444;59.472;18.306;2023-05-21T11:41:48;3.70;;;3.40;;
11548;SDS011;61444;59.472;18.306;2023-05-21T11:43:59;4.07;;;3.30;;
11548;SDS011;61444;59.472;18.306;2023-05-21T11:46:10;4.73;;;4.17;;
11548;SDS011;61444;59.472;18.306;2023-05-21T11:48:19;4.40;;;4.10;;
11548;SDS011;61444;59.472;18.306;2023-05-21T11:50:32;4.63;;;4.23;;
11548;SDS011;61444;59.472;18.306;2023-05-21T11:52:42;5.00;;;4.60;;
11548;SDS011;61444;59.472;18.306;2023-05-21T11:54:52;5.53;;;4.70;;
11548;SDS011;61444;59.472;18.306;2023-05-21T11:57:04;3.90;;;3.50;;
11548;SDS011;61444;59.472;18.306;2023-05-21T11:59:14;5.10;;;4.43;;
11548;SDS011;61444;59.472;18.306;2023-05-21T12:01:25;4.30;;;3.70;;
11548;SDS011;61444;59.472;18.306;2023-05-21T12:03:37;5.23;;;4.70;;
11548;SDS011;61444;59.472;18.306;2023-05-21T12:05:46;4.87;;;3.33;;
11548;SDS011;61444;59.472;18.306;2023-05-21T12:07:55;4.80;;;4.50;;
11548;SDS011;61444;59.472;18.306;2023-05-21T12:10:05;4.97;;;4.57;;
11548;SDS011;61444;59.472;18.306;2023-05-21T12:12:14;3.50;;;3.20;;
11548;SDS011;61444;59.472;18.306;2023-05-21T12:14:23;4.53;;;4.20;;
11548;SDS011;61444;59.472;18.306;2023-05-21T12:16:34;4.10;;;3.70;;
11548;SDS011;61444;59.472;18.306;2023-05-21T12:18:43;4.77;;;3.67;;
11548;SDS011;61444;59.472;18.306;2023-05-21T12:20:52;3.40;;;3.20;;
11548;SDS011;61444;59.472;18.306;2023-05-21T12:23:01;3.37;;;3.07;;
11548;SDS011;61444;59.472;18.306;2023-05-21T12:25:10;4.67;;;4.10;;
11548;SDS011;61444;59.472;18.306;2023-05-21T12:27:19;4.63;;;4.07;;
11548;SDS011;61444;59.472;18.306;2023-05-21T12:29:29;3.83;;;3.53;;
11548;SDS011;61444;59.472;18.306;2023-05-21T12:31:47;3.67;;;2.77;;
11548;SDS011;61444;59.472;18.306;2023-05-21T12:33:56;4.70;;;4.30;;
11548;SDS011;61444;59.472;18.306;2023-05-21T12:36:07;5.60;;;3.80;;
11548;SDS011;61444;59.472;18.306;2023-05-21T12:38:16;5.77;;;5.47;;
11548;SDS011;61444;59.472;18.306;2023-05-21T12:40:33;4.60;;;4.20;;
11548;SDS011;61444;59.472;18.306;2023-05-21T12:42:43;4.70;;;4.40;;
11548;SDS011;61444;59.472;18.306;2023-05-21T12:44:52;5.13;;;4.83;;
11548;SDS011;61444;59.472;18.306;2023-05-21T12:47:03;5.10;;;4.83;;
11548;SDS011;61444;59.472;18.306;2023-05-21T12:51:37;6.60;;;4.47;;
11548;SDS011;61444;59.472;18.306;2023-05-21T12:53:46;3.47;;;3.03;;
11548;SDS011;61444;59.472;18.306;2023-05-21T12:55:55;6.40;;;5.90;;
11548;SDS011;61444;59.472;18.306;2023-05-21T12:58:14;6.50;;;6.00;;